Time;durP1;ratioP1;P1;durP2;ratioP2;P2;SDS_P1;SDS_P2;PMS_P1;PMS_P2;Temp;Humidity;BMP_temperature;BMP_pressure;BME280_temperature;BME280_humidity;BME280_pressure;Samples;Min_cycle;Max_cycle;Signal;HPM_P1;HPM_P2
2022/10/19 00:02:01;;;;;;;;;;;12.30;99.90;;;;;;5001318;28;19929;-56
2022/10/19 00:04:28;;;;;;;;;;;12.30;99.90;;;;;;5000565;28;21386;-57
2022/10/19 00:06:55;;;;;;;;;;;12.30;99.90;;;;;;5001358;28;19929;-57
2022/10/19 00:09:22;;;;;;;;;;;12.30;99.90;;;;;;4998091;28;19929;-56
2022/10/19 00:11:50;;;;;;;;;;;12.30;99.90;;;;;;5003127;28;19929;-56
2022/10/19 00:14:17;;;;;;;;;;;12.40;99.90;;;;;;5002689;28;21764;-57
2022/10/19 00:16:46;;;;;;;;;;;12.30;99.90;;;;;;5001699;28;19930;-57
2022/10/19 00:19:14;;;;;;;;;;;12.30;99.90;;;;;;5002032;28;20402;-56
2022/10/19 00:21:41;;;;;;;;;;;12.30;99.90;;;;;;5001112;28;19929;-57
2022/10/19 00:24:07;;;;;;;;;;;12.40;99.90;;;;;;5001130;28;19944;-57
2022/10/19 00:26:34;;;;;;;;;;;12.30;99.90;;;;;;5004350;28;20325;-56
2022/10/19 00:29:01;;;;;;;;;;;12.30;99.90;;;;;;5003931;28;19929;-57
2022/10/19 00:31:28;;;;;;;;;;;12.30;99.90;;;;;;5004131;28;19936;-56
2022/10/19 00:33:57;;;;;;;;;;;12.30;99.90;;;;;;5004101;28;19944;-57
2022/10/19 00:36:25;;;;;;;;;;;12.30;99.90;;;;;;5002758;28;20414;-57
2022/10/19 00:38:52;;;;;;;;;;;12.30;99.90;;;;;;5002680;28;20401;-56
2022/10/19 00:41:19;;;;;;;;;;;12.20;99.90;;;;;;5004846;28;19930;-56
2022/10/19 00:43:53;;;;;;;;;;;12.30;99.90;;;;;;5003802;28;19941;-57
2022/10/19 00:46:20;;;;;;;;;;;12.30;99.90;;;;;;5001800;28;19934;-57
2022/10/19 00:48:47;;;;;;;;;;;12.30;99.90;;;;;;5002336;28;21790;-56
2022/10/19 00:51:15;;;;;;;;;;;12.30;99.90;;;;;;5003331;28;21082;-57
2022/10/19 00:53:42;;;;;;;;;;;12.30;99.90;;;;;;5004344;28;19941;-57
2022/10/19 00:56:12;;;;;;;;;;;12.30;99.90;;;;;;5003181;28;19972;-57
2022/10/19 00:58:43;;;;;;;;;;;12.30;99.90;;;;;;5003150;28;20029;-56
2022/10/19 01:01:11;;;;;;;;;;;12.30;99.90;;;;;;5002857;28;20019;-57
2022/10/19 01:03:38;;;;;;;;;;;12.30;99.90;;;;;;5002723;28;19933;-57
2022/10/19 01:06:05;;;;;;;;;;;12.30;99.90;;;;;;5002048;28;19929;-56
2022/10/19 01:08:33;;;;;;;;;;;12.30;99.90;;;;;;5001184;28;19937;-57
2022/10/19 01:11:03;;;;;;;;;;;12.40;99.90;;;;;;5000274;28;19936;-57
2022/10/19 01:13:35;;;;;;;;;;;12.30;99.90;;;;;;5003254;28;19932;-56
2022/10/19 01:16:04;;;;;;;;;;;12.30;99.90;;;;;;5002880;28;19929;-56
2022/10/19 01:18:34;;;;;;;;;;;12.30;99.90;;;;;;5002780;28;20975;-56
2022/10/19 01:21:19;;;;;;;;;;;12.30;99.90;;;;;;5001043;28;19937;-57
2022/10/19 01:24:02;;;;;;;;;;;12.30;99.90;;;;;;5003379;28;19933;-56
2022/10/19 01:26:47;;;;;;;;;;;12.30;99.90;;;;;;5003159;28;19936;-56
2022/10/19 01:29:17;;;;;;;;;;;12.30;99.90;;;;;;5000868;28;19936;-56
2022/10/19 01:31:47;;;;;;;;;;;12.30;99.90;;;;;;5002433;28;19930;-56
2022/10/19 01:34:17;;;;;;;;;;;12.30;99.90;;;;;;5002977;28;20478;-57
2022/10/19 01:36:49;;;;;;;;;;;12.30;99.90;;;;;;5002038;28;20312;-56
2022/10/19 01:39:20;;;;;;;;;;;12.30;99.90;;;;;;5002703;28;19929;-56
2022/10/19 01:41:50;;;;;;;;;;;12.30;99.90;;;;;;5001685;28;19936;-57
2022/10/19 01:44:18;;;;;;;;;;;12.30;99.90;;;;;;5002568;28;21654;-57
2022/10/19 01:46:49;;;;;;;;;;;12.30;99.90;;;;;;5002242;28;20230;-56
2022/10/19 01:49:18;;;;;;;;;;;12.30;99.90;;;;;;5002413;28;19929;-56
2022/10/19 01:51:48;;;;;;;;;;;12.30;99.90;;;;;;5005188;28;19936;-57
2022/10/19 01:54:15;;;;;;;;;;;12.30;99.90;;;;;;5005254;28;19960;-56
2022/10/19 01:56:44;;;;;;;;;;;12.30;99.90;;;;;;5006309;28;19936;-56
2022/10/19 01:59:11;;;;;;;;;;;12.30;99.90;;;;;;5007029;28;19929;-57
2022/10/19 02:01:40;;;;;;;;;;;12.30;99.90;;;;;;5004635;28;20411;-56
2022/10/19 02:04:09;;;;;;;;;;;12.30;99.90;;;;;;5005900;28;19977;-57
2022/10/19 02:06:36;;;;;;;;;;;12.40;99.90;;;;;;5006207;28;19936;-57
2022/10/19 02:09:03;;;;;;;;;;;12.30;99.90;;;;;;5003524;28;19937;-57
2022/10/19 02:11:31;;;;;;;;;;;12.30;99.90;;;;;;5007025;28;19936;-56
2022/10/19 02:13:59;;;;;;;;;;;12.40;99.90;;;;;;5004352;28;20474;-57
2022/10/19 02:16:27;;;;;;;;;;;12.30;99.90;;;;;;5006270;28;19930;-56
2022/10/19 02:18:55;;;;;;;;;;;12.40;99.90;;;;;;5007255;28;19936;-57
2022/10/19 02:21:23;;;;;;;;;;;12.30;99.90;;;;;;5005352;28;20709;-57
2022/10/19 02:23:49;;;;;;;;;;;12.30;99.90;;;;;;5005322;28;20077;-57
2022/10/19 02:26:16;;;;;;;;;;;12.30;99.90;;;;;;5005078;28;20387;-57
2022/10/19 02:28:43;;;;;;;;;;;12.40;99.90;;;;;;5004819;28;20888;-57
2022/10/19 02:31:09;;;;;;;;;;;12.40;99.90;;;;;;5006913;28;20032;-57
2022/10/19 02:33:36;;;;;;;;;;;12.30;99.90;;;;;;5005756;28;19933;-57
2022/10/19 02:36:03;;;;;;;;;;;12.40;99.90;;;;;;5005160;28;20624;-57
2022/10/19 02:46:20;;;;;;;;;;;12.30;99.90;;;;;;5158981;22;20692;-56
2022/10/19 02:49:12;;;;;;;;;;;12.30;99.90;;;;;;5575618;23;20042;31
2022/10/19 02:54:30;;;;;;;;;;;12.20;99.90;;;;;;6011597;22;21622;-60
2022/10/19 02:56:57;;;;;;;;;;;12.20;99.90;;;;;;4973580;28;19936;-59
2022/10/19 02:59:24;;;;;;;;;;;12.10;99.90;;;;;;4974747;28;19940;-59
2022/10/19 03:01:52;;;;;;;;;;;12.10;99.90;;;;;;4975783;28;19969;-59
2022/10/19 03:04:19;;;;;;;;;;;12.10;99.90;;;;;;4974299;28;20422;-59
2022/10/19 03:06:45;;;;;;;;;;;12.00;99.90;;;;;;4975355;28;19940;-59
2022/10/19 03:09:12;;;;;;;;;;;12.00;99.90;;;;;;4975741;28;19940;-59
2022/10/19 03:11:39;;;;;;;;;;;12.00;99.90;;;;;;4975178;28;20647;-59
2022/10/19 03:14:05;;;;;;;;;;;12.00;99.90;;;;;;4976571;28;19934;-59
2022/10/19 03:16:32;;;;;;;;;;;11.90;99.90;;;;;;4976668;28;19979;-59
2022/10/19 03:19:00;;;;;;;;;;;11.90;99.90;;;;;;4977401;28;19930;-60
2022/10/19 03:21:26;;;;;;;;;;;11.80;99.90;;;;;;4978273;28;21312;-59
2022/10/19 03:23:53;;;;;;;;;;;11.80;99.90;;;;;;4977670;28;21057;-59
2022/10/19 03:26:20;;;;;;;;;;;11.80;99.90;;;;;;4977681;28;19930;-59
2022/10/19 03:28:47;;;;;;;;;;;11.80;99.90;;;;;;4976701;28;19988;-59
2022/10/19 03:31:13;;;;;;;;;;;11.80;99.90;;;;;;4977364;28;19930;-59
2022/10/19 03:33:40;;;;;;;;;;;11.70;99.90;;;;;;4978098;28;21034;-59
2022/10/19 03:36:14;;;;;;;;;;;11.70;99.90;;;;;;4977208;28;19929;-60
2022/10/19 03:38:41;;;;;;;;;;;11.70;99.90;;;;;;4976888;28;19930;-59
2022/10/19 03:41:08;;;;;;;;;;;11.70;99.90;;;;;;4977923;28;20176;-59
2022/10/19 03:43:34;;;;;;;;;;;11.70;99.90;;;;;;4977684;28;20703;-56
2022/10/19 03:46:01;;;;;;;;;;;11.70;99.90;;;;;;4976729;28;19937;-56
2022/10/19 03:48:28;;;;;;;;;;;11.70;99.90;;;;;;4976430;28;21104;-56
2022/10/19 03:50:58;;;;;;;;;;;11.70;99.90;;;;;;4976945;28;20514;-56
2022/10/19 03:53:26;;;;;;;;;;;11.70;99.90;;;;;;4976964;28;19945;-56
2022/10/19 03:55:53;;;;;;;;;;;11.70;99.90;;;;;;4990336;28;19929;-56
2022/10/19 03:58:20;;;;;;;;;;;11.80;99.90;;;;;;4995713;28;20364;-56
2022/10/19 04:00:46;;;;;;;;;;;11.80;99.90;;;;;;4996927;28;19930;-56
2022/10/19 04:03:13;;;;;;;;;;;11.80;99.90;;;;;;4996253;28;19940;-56
2022/10/19 04:05:39;;;;;;;;;;;11.90;99.90;;;;;;4996866;28;19952;-56
2022/10/19 04:08:06;;;;;;;;;;;11.90;99.90;;;;;;4993393;28;19929;-56
2022/10/19 04:10:34;;;;;;;;;;;11.90;99.90;;;;;;4996000;28;19934;-56
2022/10/19 04:13:01;;;;;;;;;;;11.90;99.90;;;;;;4994219;28;19938;-56
2022/10/19 04:15:27;;;;;;;;;;;11.90;99.90;;;;;;4996603;28;20439;-56
2022/10/19 04:17:54;;;;;;;;;;;11.90;99.90;;;;;;4995199;28;19940;-56
2022/10/19 04:20:21;;;;;;;;;;;11.90;99.90;;;;;;4996064;28;20627;-56
2022/10/19 04:22:47;;;;;;;;;;;12.00;99.90;;;;;;4995031;28;19934;-56
2022/10/19 04:25:14;;;;;;;;;;;11.90;99.90;;;;;;4995667;28;20435;-56
2022/10/19 04:27:42;;;;;;;;;;;11.90;99.90;;;;;;4994046;28;20276;-56
2022/10/19 04:30:09;;;;;;;;;;;11.90;99.90;;;;;;4994554;28;20289;-56
2022/10/19 04:32:35;;;;;;;;;;;11.90;99.90;;;;;;4995353;28;19945;-56
2022/10/19 04:35:02;;;;;;;;;;;11.80;99.90;;;;;;4996364;28;19929;-56
2022/10/19 04:37:29;;;;;;;;;;;11.90;99.90;;;;;;4994971;28;20502;-56
2022/10/19 04:39:56;;;;;;;;;;;11.90;99.90;;;;;;4995249;28;20411;-55
2022/10/19 04:42:22;;;;;;;;;;;11.90;99.90;;;;;;4996559;28;20039;-56
2022/10/19 04:44:51;;;;;;;;;;;11.90;99.90;;;;;;4995331;28;19936;-56
2022/10/19 04:47:17;;;;;;;;;;;11.90;99.90;;;;;;4995321;28;20016;-56
2022/10/19 04:49:44;;;;;;;;;;;11.90;99.90;;;;;;4994527;28;19933;-56
2022/10/19 04:52:11;;;;;;;;;;;11.90;99.90;;;;;;4995082;28;19933;-56
2022/10/19 04:54:37;;;;;;;;;;;11.90;99.90;;;;;;4995033;28;20474;-56
2022/10/19 04:57:04;;;;;;;;;;;11.90;99.90;;;;;;4994788;28;19929;-57
2022/10/19 04:59:31;;;;;;;;;;;11.90;99.90;;;;;;4995994;28;20285;-56
2022/10/19 05:01:59;;;;;;;;;;;11.90;99.90;;;;;;4994087;28;19933;-56
2022/10/19 05:04:25;;;;;;;;;;;11.90;99.90;;;;;;4993262;28;19933;-56
2022/10/19 05:06:52;;;;;;;;;;;11.90;99.90;;;;;;4994174;28;20546;-56
2022/10/19 05:09:18;;;;;;;;;;;11.90;99.90;;;;;;4993612;28;20015;-56
2022/10/19 05:11:45;;;;;;;;;;;11.90;99.90;;;;;;4995081;28;21724;-57
2022/10/19 05:14:12;;;;;;;;;;;11.90;99.90;;;;;;4997601;28;19929;-56
2022/10/19 05:16:38;;;;;;;;;;;11.90;99.90;;;;;;4998929;28;19937;-56
2022/10/19 05:19:06;;;;;;;;;;;11.90;99.90;;;;;;4998718;28;20956;-56
2022/10/19 05:21:33;;;;;;;;;;;11.90;99.90;;;;;;4998448;28;21652;-56
2022/10/19 05:24:00;;;;;;;;;;;11.90;99.90;;;;;;4997987;28;20404;-56
2022/10/19 05:26:27;;;;;;;;;;;11.90;99.90;;;;;;4998717;28;21051;-56
2022/10/19 05:28:56;;;;;;;;;;;12.00;99.90;;;;;;4998141;28;19937;-56
2022/10/19 05:31:23;;;;;;;;;;;12.00;99.90;;;;;;4998560;28;19934;-56
2022/10/19 05:33:50;;;;;;;;;;;12.00;99.90;;;;;;4998864;28;19929;-56
2022/10/19 05:36:19;;;;;;;;;;;12.00;99.90;;;;;;4997601;28;20042;-56
2022/10/19 05:38:47;;;;;;;;;;;12.00;99.90;;;;;;4997374;28;19936;-56
2022/10/19 05:41:14;;;;;;;;;;;12.00;99.90;;;;;;4997421;28;19934;-56
2022/10/19 05:43:41;;;;;;;;;;;12.00;99.90;;;;;;4998376;28;19929;-56
2022/10/19 05:46:09;;;;;;;;;;;12.00;99.90;;;;;;4996711;28;19929;-56
2022/10/19 05:48:35;;;;;;;;;;;12.00;99.90;;;;;;4996027;28;19961;-56
2022/10/19 05:51:04;;;;;;;;;;;12.00;99.90;;;;;;4999000;28;21716;-56
2022/10/19 05:53:32;;;;;;;;;;;12.00;99.90;;;;;;4998269;28;20060;-56
2022/10/19 05:55:59;;;;;;;;;;;12.00;99.90;;;;;;4996402;28;19929;-56
2022/10/19 05:58:25;;;;;;;;;;;12.00;99.90;;;;;;4999096;28;21386;-56
2022/10/19 06:00:53;;;;;;;;;;;12.00;99.90;;;;;;4998199;28;19941;-56
2022/10/19 06:03:20;;;;;;;;;;;12.00;99.90;;;;;;4997054;28;20558;-56
2022/10/19 06:05:47;;;;;;;;;;;12.00;99.90;;;;;;4997008;28;20972;-56
2022/10/19 06:08:14;;;;;;;;;;;12.00;99.90;;;;;;4996504;28;20462;-56
2022/10/19 06:10:42;;;;;;;;;;;12.00;99.90;;;;;;4996763;28;19933;-56
2022/10/19 06:13:08;;;;;;;;;;;12.00;99.90;;;;;;4997095;28;20377;-56
2022/10/19 06:15:35;;;;;;;;;;;12.00;99.90;;;;;;4997743;28;19937;-57
2022/10/19 06:18:03;;;;;;;;;;;12.00;99.90;;;;;;4998423;28;20400;-56
2022/10/19 06:20:30;;;;;;;;;;;12.10;99.90;;;;;;4998686;28;19933;-56
2022/10/19 06:22:56;;;;;;;;;;;12.10;99.90;;;;;;4995660;28;19984;-56
2022/10/19 06:25:23;;;;;;;;;;;12.10;99.90;;;;;;4997401;28;19951;-56
2022/10/19 06:27:51;;;;;;;;;;;12.10;99.90;;;;;;4996061;28;19929;-56
2022/10/19 06:30:18;;;;;;;;;;;12.10;99.90;;;;;;4997685;28;19941;-56
2022/10/19 06:32:45;;;;;;;;;;;12.10;99.90;;;;;;4996480;28;19936;-56
2022/10/19 06:35:11;;;;;;;;;;;12.10;99.90;;;;;;4996021;28;19939;-56
2022/10/19 06:37:38;;;;;;;;;;;12.10;99.90;;;;;;4999057;28;20338;-56
2022/10/19 06:40:05;;;;;;;;;;;12.10;99.90;;;;;;4999443;28;20425;-56
2022/10/19 06:42:32;;;;;;;;;;;12.10;99.90;;;;;;4998847;28;20104;-56
2022/10/19 06:45:00;;;;;;;;;;;12.10;99.90;;;;;;4999348;28;20060;-56
2022/10/19 06:47:31;;;;;;;;;;;12.10;99.90;;;;;;4998389;28;19929;-56
2022/10/19 06:49:58;;;;;;;;;;;12.10;99.90;;;;;;5000370;28;20048;-56
2022/10/19 06:52:24;;;;;;;;;;;12.20;99.90;;;;;;4999753;28;19933;-56
2022/10/19 06:54:51;;;;;;;;;;;12.20;99.90;;;;;;4998730;28;19930;-56
2022/10/19 06:57:18;;;;;;;;;;;12.20;99.90;;;;;;4996345;28;19929;-56
2022/10/19 06:59:44;;;;;;;;;;;12.20;99.90;;;;;;4997543;28;21734;-56
2022/10/19 07:02:12;;;;;;;;;;;12.20;99.90;;;;;;4998379;28;19929;-56
2022/10/19 07:04:39;;;;;;;;;;;12.20;99.90;;;;;;4998474;28;20385;-56
2022/10/19 07:07:06;;;;;;;;;;;12.20;99.90;;;;;;4996748;28;19929;-56
2022/10/19 07:09:33;;;;;;;;;;;12.20;99.90;;;;;;4998593;28;20787;-56
2022/10/19 07:11:59;;;;;;;;;;;12.20;99.90;;;;;;4999538;28;19935;-56
2022/10/19 07:14:27;;;;;;;;;;;12.20;99.90;;;;;;4998829;28;19936;-56
2022/10/19 07:16:54;;;;;;;;;;;12.30;99.90;;;;;;5000352;28;19933;-56
2022/10/19 07:19:22;;;;;;;;;;;12.30;99.90;;;;;;5000061;28;22192;-56
2022/10/19 07:21:50;;;;;;;;;;;12.40;99.90;;;;;;5000057;28;19978;-56
2022/10/19 07:24:17;;;;;;;;;;;12.40;99.90;;;;;;4999192;28;20431;-56
2022/10/19 07:26:43;;;;;;;;;;;12.40;99.90;;;;;;4999039;28;19929;-56
2022/10/19 07:29:10;;;;;;;;;;;12.40;99.90;;;;;;4997581;28;19933;-56
2022/10/19 07:31:37;;;;;;;;;;;12.40;99.90;;;;;;4999621;28;20052;-56
2022/10/19 07:34:04;;;;;;;;;;;12.50;99.90;;;;;;4999419;28;20016;-56
2022/10/19 07:36:33;;;;;;;;;;;12.50;99.90;;;;;;4997583;28;19936;-56
2022/10/19 07:39:01;;;;;;;;;;;12.50;99.90;;;;;;4999335;28;19934;-56
2022/10/19 07:41:27;;;;;;;;;;;12.50;99.90;;;;;;4997544;28;21476;-56
2022/10/19 07:43:56;;;;;;;;;;;12.50;99.90;;;;;;4999466;28;19929;-56
2022/10/19 07:46:24;;;;;;;;;;;12.60;99.90;;;;;;4998743;28;19930;-56
2022/10/19 07:48:50;;;;;;;;;;;12.60;99.90;;;;;;4999392;28;19933;-56
2022/10/19 07:51:18;;;;;;;;;;;12.60;99.90;;;;;;4997984;28;19930;-56
2022/10/19 07:53:46;;;;;;;;;;;12.60;99.90;;;;;;4998799;28;19936;-56
2022/10/19 07:56:14;;;;;;;;;;;12.70;99.90;;;;;;4998160;28;19936;-56
2022/10/19 07:58:41;;;;;;;;;;;12.70;99.90;;;;;;4998752;28;20472;-56
2022/10/19 08:01:09;;;;;;;;;;;12.70;99.90;;;;;;4999307;28;19930;-56
2022/10/19 08:03:36;;;;;;;;;;;12.70;99.90;;;;;;4998627;28;20703;-56
2022/10/19 08:06:04;;;;;;;;;;;12.70;99.90;;;;;;4997996;28;19929;-56
2022/10/19 08:08:31;;;;;;;;;;;12.70;99.90;;;;;;4998107;28;19940;-56
2022/10/19 08:11:05;;;;;;;;;;;12.80;99.90;;;;;;4997543;28;20024;-56
2022/10/19 08:13:32;;;;;;;;;;;12.80;99.90;;;;;;4997556;28;19929;-56
2022/10/19 08:15:59;;;;;;;;;;;12.80;99.90;;;;;;4997134;28;19929;-56
2022/10/19 08:18:25;;;;;;;;;;;12.80;99.90;;;;;;4994625;28;20393;-56
2022/10/19 08:20:52;;;;;;;;;;;12.80;99.90;;;;;;4996403;28;19929;-56
2022/10/19 08:23:19;;;;;;;;;;;12.80;99.90;;;;;;4995156;28;19929;-56
2022/10/19 08:25:45;;;;;;;;;;;12.90;99.90;;;;;;4995632;28;19930;-56
2022/10/19 08:28:13;;;;;;;;;;;12.90;99.90;;;;;;4994651;28;19934;-56
2022/10/19 08:30:40;;;;;;;;;;;12.90;99.90;;;;;;4994361;28;19930;-56
2022/10/19 08:33:07;;;;;;;;;;;12.90;99.90;;;;;;4998258;28;19952;-56
2022/10/19 08:35:34;;;;;;;;;;;13.00;99.90;;;;;;4997687;28;21757;-56
2022/10/19 08:38:00;;;;;;;;;;;13.00;99.90;;;;;;4999195;28;20527;-56
2022/10/19 08:40:28;;;;;;;;;;;13.00;99.90;;;;;;4998241;28;21546;-56
2022/10/19 08:42:58;;;;;;;;;;;13.00;99.90;;;;;;4997855;28;19930;-56
2022/10/19 08:45:39;;;;;;;;;;;13.00;99.90;;;;;;4999605;28;19929;-56
2022/10/19 08:48:26;;;;;;;;;;;13.00;99.90;;;;;;4993951;28;19934;-56
2022/10/19 08:50:54;;;;;;;;;;;13.00;99.90;;;;;;4991982;28;19930;-56
2022/10/19 08:53:26;;;;;;;;;;;13.00;99.90;;;;;;4999410;28;20241;-56
2022/10/19 08:56:04;;;;;;;;;;;13.10;99.90;;;;;;4997970;28;20214;-56
2022/10/19 08:58:36;;;;;;;;;;;13.10;99.90;;;;;;4996910;28;19933;-56
2022/10/19 09:01:06;;;;;;;;;;;13.10;99.90;;;;;;5000144;28;19930;-56
2022/10/19 09:03:37;;;;;;;;;;;13.10;99.90;;;;;;4996700;28;19929;-56
2022/10/19 09:06:11;;;;;;;;;;;13.10;99.90;;;;;;4998371;28;21094;-56
2022/10/19 09:08:40;;;;;;;;;;;13.10;99.90;;;;;;4995195;28;19956;-56
2022/10/19 09:11:08;;;;;;;;;;;13.20;99.90;;;;;;4998601;28;20483;-56
2022/10/19 09:13:37;;;;;;;;;;;13.20;99.90;;;;;;4997960;28;20381;-56
2022/10/19 09:16:05;;;;;;;;;;;13.20;99.90;;;;;;4999274;28;20020;-56
2022/10/19 09:18:33;;;;;;;;;;;13.20;99.90;;;;;;4999080;28;19933;-56
2022/10/19 09:21:02;;;;;;;;;;;13.20;99.90;;;;;;4998662;28;19930;-56
2022/10/19 09:23:31;;;;;;;;;;;13.20;99.90;;;;;;4999097;28;19929;-56
2022/10/19 09:25:58;;;;;;;;;;;13.20;99.90;;;;;;4997957;28;19929;-56
2022/10/19 09:28:37;;;;;;;;;;;13.30;99.90;;;;;;4997502;28;19940;-56
2022/10/19 09:31:04;;;;;;;;;;;13.30;99.90;;;;;;4998921;28;20348;-56
2022/10/19 09:33:34;;;;;;;;;;;13.30;99.90;;;;;;4997539;28;20612;-56
2022/10/19 09:36:02;;;;;;;;;;;13.30;99.90;;;;;;4997762;28;19940;-56
2022/10/19 09:38:30;;;;;;;;;;;13.30;99.90;;;;;;4996736;28;20309;-56
2022/10/19 09:40:57;;;;;;;;;;;13.30;99.90;;;;;;4996720;28;20376;-56
2022/10/19 09:43:24;;;;;;;;;;;13.40;99.90;;;;;;4996702;28;20603;-56
2022/10/19 09:45:53;;;;;;;;;;;13.30;99.90;;;;;;4997897;28;20045;-56
2022/10/19 09:48:24;;;;;;;;;;;13.30;99.90;;;;;;4997451;28;19940;-56
2022/10/19 09:50:55;;;;;;;;;;;13.30;99.90;;;;;;4998274;28;19936;-56
2022/10/19 09:53:25;;;;;;;;;;;13.40;99.90;;;;;;4998054;28;20407;-56
2022/10/19 09:55:57;;;;;;;;;;;13.40;99.90;;;;;;4998575;28;19937;-56
2022/10/19 09:58:25;;;;;;;;;;;13.40;99.90;;;;;;4998462;28;19969;-56
2022/10/19 10:00:53;;;;;;;;;;;13.40;99.90;;;;;;4997614;28;19929;-56
2022/10/19 10:03:39;;;;;;;;;;;13.40;99.90;;;;;;4999526;28;19930;-56
2022/10/19 10:06:08;;;;;;;;;;;13.40;99.90;;;;;;4999445;28;19930;-56
2022/10/19 10:08:36;;;;;;;;;;;13.40;99.90;;;;;;4997594;28;19934;-56
2022/10/19 10:11:07;;;;;;;;;;;13.40;99.90;;;;;;5000128;28;19941;-56
2022/10/19 10:13:39;;;;;;;;;;;13.30;99.90;;;;;;5002561;28;19930;-56
2022/10/19 10:16:07;;;;;;;;;;;13.40;99.90;;;;;;5002407;28;19929;-56
2022/10/19 10:18:36;;;;;;;;;;;13.40;99.90;;;;;;5002501;28;19934;-56
2022/10/19 10:21:04;;;;;;;;;;;13.40;99.90;;;;;;5001606;28;19936;-56
2022/10/19 10:23:35;;;;;;;;;;;13.40;99.90;;;;;;5001231;28;19937;-56
2022/10/19 10:26:02;;;;;;;;;;;13.40;99.90;;;;;;5001472;28;19941;-56
2022/10/19 10:28:30;;;;;;;;;;;13.50;99.90;;;;;;5000760;28;19934;-56
2022/10/19 10:31:00;;;;;;;;;;;13.40;99.90;;;;;;5002344;28;20497;-56
2022/10/19 10:33:27;;;;;;;;;;;13.50;99.90;;;;;;5002022;28;21557;-56
2022/10/19 10:35:56;;;;;;;;;;;13.50;99.90;;;;;;5001574;28;19930;-56
2022/10/19 10:38:24;;;;;;;;;;;13.50;99.90;;;;;;5001847;28;20450;-56
2022/10/19 10:40:53;;;;;;;;;;;13.50;99.90;;;;;;5000660;28;20552;-56
2022/10/19 10:43:21;;;;;;;;;;;13.50;99.90;;;;;;5001921;28;19929;-56
2022/10/19 10:45:50;;;;;;;;;;;13.50;99.90;;;;;;5002386;28;19984;-56
2022/10/19 10:48:23;;;;;;;;;;;13.50;99.90;;;;;;5000441;28;19941;-56
2022/10/19 10:50:50;;;;;;;;;;;13.50;99.90;;;;;;5000966;28;19929;-56
2022/10/19 10:53:44;;;;;;;;;;;13.50;99.90;;;;;;5000291;28;19938;-56
2022/10/19 10:56:21;;;;;;;;;;;13.50;99.90;;;;;;4946688;28;20544;-56
2022/10/19 10:58:50;;;;;;;;;;;13.60;99.90;;;;;;4973423;28;19933;-56
2022/10/19 11:01:19;;;;;;;;;;;13.60;99.90;;;;;;4974392;28;19929;-56
2022/10/19 11:03:49;;;;;;;;;;;13.60;99.90;;;;;;4977871;28;19930;-56
2022/10/19 11:06:20;;;;;;;;;;;13.70;99.90;;;;;;4976679;28;19934;-57
2022/10/19 11:08:49;;;;;;;;;;;13.80;99.90;;;;;;4980559;28;20420;-56
2022/10/19 11:11:17;;;;;;;;;;;13.80;99.90;;;;;;4980642;28;19930;-56
2022/10/19 11:13:48;;;;;;;;;;;13.80;99.90;;;;;;4980151;28;19936;-56
2022/10/19 11:16:16;;;;;;;;;;;13.80;99.90;;;;;;4980836;28;20163;-56
2022/10/19 11:18:44;;;;;;;;;;;13.80;99.70;;;;;;4979401;28;19925;-57
2022/10/19 11:21:12;;;;;;;;;;;13.90;99.70;;;;;;4977219;28;20377;-56
2022/10/19 11:23:50;;;;;;;;;;;13.90;99.30;;;;;;4979367;28;19930;-56
2022/10/19 11:26:26;;;;;;;;;;;13.90;99.30;;;;;;4980538;28;19930;-56
2022/10/19 11:29:00;;;;;;;;;;;13.90;99.80;;;;;;4978660;28;19934;-56
2022/10/19 11:31:30;;;;;;;;;;;13.90;99.90;;;;;;4980693;28;19934;-56
2022/10/19 11:34:02;;;;;;;;;;;13.90;99.90;;;;;;4980606;28;19930;-56
2022/10/19 11:36:34;;;;;;;;;;;14.00;99.90;;;;;;4978680;28;19936;-56
2022/10/19 11:39:05;;;;;;;;;;;14.00;99.90;;;;;;4981723;28;20310;-56
2022/10/19 11:41:37;;;;;;;;;;;14.00;99.90;;;;;;4979469;28;19930;-56
2022/10/19 11:44:12;;;;;;;;;;;14.10;99.90;;;;;;4981233;28;20449;-56
2022/10/19 11:46:42;;;;;;;;;;;14.00;99.90;;;;;;4980021;28;20748;-56
2022/10/19 11:49:16;;;;;;;;;;;14.00;99.50;;;;;;4979445;28;19938;-56
2022/10/19 11:51:45;;;;;;;;;;;14.00;99.30;;;;;;4979275;28;20207;-56
2022/10/19 11:54:21;;;;;;;;;;;13.90;99.50;;;;;;4979011;28;19930;-56
2022/10/19 11:56:49;;;;;;;;;;;13.90;98.90;;;;;;4995951;28;19930;-56
2022/10/19 11:59:22;;;;;;;;;;;13.80;99.90;;;;;;4999769;28;21967;-56
2022/10/19 12:01:54;;;;;;;;;;;13.80;99.90;;;;;;4999474;28;20058;-56
2022/10/19 12:04:29;;;;;;;;;;;13.80;99.90;;;;;;4999009;28;19929;-56
2022/10/19 12:07:01;;;;;;;;;;;13.80;99.90;;;;;;4999182;28;19929;-56
2022/10/19 12:09:34;;;;;;;;;;;13.80;99.50;;;;;;4998918;28;20627;-56
2022/10/19 12:12:15;;;;;;;;;;;13.80;99.90;;;;;;4998275;28;19934;-56
2022/10/19 12:14:46;;;;;;;;;;;13.80;99.90;;;;;;4996898;28;20375;-56
2022/10/19 12:17:15;;;;;;;;;;;13.80;99.90;;;;;;4999282;28;20438;-56
2022/10/19 12:19:44;;;;;;;;;;;13.80;99.90;;;;;;4996660;28;19968;-56
2022/10/19 12:22:13;;;;;;;;;;;13.80;99.90;;;;;;4998747;28;19930;-56
2022/10/19 12:24:40;;;;;;;;;;;13.80;99.90;;;;;;4996885;28;19935;-56
2022/10/19 12:27:06;;;;;;;;;;;13.80;99.40;;;;;;4998698;28;20710;-56
2022/10/19 12:29:35;;;;;;;;;;;13.90;99.70;;;;;;4996886;28;19934;-56
2022/10/19 12:32:04;;;;;;;;;;;13.80;99.40;;;;;;4997002;28;19936;-56
2022/10/19 12:34:36;;;;;;;;;;;13.80;99.70;;;;;;4998118;28;19936;-56
2022/10/19 12:37:06;;;;;;;;;;;13.70;99.40;;;;;;4998748;28;19929;-56
2022/10/19 12:39:37;;;;;;;;;;;13.70;99.60;;;;;;4997808;28;19933;-56
2022/10/19 12:42:09;;;;;;;;;;;13.70;99.90;;;;;;4994847;28;20107;-56
2022/10/19 12:44:51;;;;;;;;;;;13.70;99.90;;;;;;4998005;28;20396;-56
2022/10/19 12:47:20;;;;;;;;;;;13.70;99.90;;;;;;4994822;28;19965;-56
2022/10/19 12:49:47;;;;;;;;;;;13.70;99.90;;;;;;4995701;28;20349;-56
2022/10/19 12:52:16;;;;;;;;;;;13.80;99.90;;;;;;4994677;28;19933;-56
2022/10/19 12:54:43;;;;;;;;;;;13.90;99.90;;;;;;4997837;28;19933;-56
2022/10/19 12:57:23;;;;;;;;;;;13.90;99.40;;;;;;4995636;28;19937;-56
2022/10/19 12:59:58;;;;;;;;;;;14.00;99.20;;;;;;4994243;28;20459;-56
2022/10/19 13:02:28;;;;;;;;;;;14.00;98.80;;;;;;4999429;28;20033;-56
2022/10/19 13:04:54;;;;;;;;;;;14.00;99.60;;;;;;4997681;28;19929;-56
2022/10/19 13:07:21;;;;;;;;;;;13.90;99.40;;;;;;4995099;28;20373;-56
2022/10/19 13:09:49;;;;;;;;;;;13.90;98.80;;;;;;4997987;28;19934;-56
2022/10/19 13:12:34;;;;;;;;;;;13.80;99.10;;;;;;4998876;28;20554;-56
2022/10/19 13:15:02;;;;;;;;;;;13.70;98.40;;;;;;4998426;28;19929;-56
2022/10/19 13:17:42;;;;;;;;;;;13.70;99.70;;;;;;4996909;28;19934;-56
2022/10/19 13:20:24;;;;;;;;;;;13.70;99.90;;;;;;4998132;28;19933;-56
2022/10/19 13:22:51;;;;;;;;;;;13.70;99.80;;;;;;4996245;28;20039;-56
2022/10/19 13:25:25;;;;;;;;;;;13.70;99.80;;;;;;4996386;28;19929;-56
2022/10/19 13:27:53;;;;;;;;;;;13.70;99.70;;;;;;4996576;28;19933;-56
2022/10/19 13:30:38;;;;;;;;;;;13.70;99.50;;;;;;4997494;28;20725;-56
2022/10/19 13:33:19;;;;;;;;;;;13.70;99.40;;;;;;4997739;28;20397;-56
2022/10/19 13:35:47;;;;;;;;;;;13.60;99.20;;;;;;4995320;28;20667;-56
2022/10/19 13:38:23;;;;;;;;;;;13.60;99.60;;;;;;4997010;28;19929;-56
2022/10/19 13:40:57;;;;;;;;;;;13.60;99.60;;;;;;4996837;28;19933;-56
2022/10/19 13:43:25;;;;;;;;;;;13.50;99.50;;;;;;4996787;28;19938;-56
2022/10/19 13:45:54;;;;;;;;;;;13.50;99.80;;;;;;4995118;28;20389;-56
2022/10/19 13:48:25;;;;;;;;;;;13.40;99.80;;;;;;4996743;28;19960;-56
2022/10/19 13:50:59;;;;;;;;;;;13.40;99.90;;;;;;4997198;28;19933;-56
2022/10/19 13:53:39;;;;;;;;;;;13.40;99.90;;;;;;4997126;28;21423;-56
2022/10/19 13:56:28;;;;;;;;;;;13.40;99.90;;;;;;4996943;28;20474;-56
2022/10/19 13:59:06;;;;;;;;;;;13.40;99.90;;;;;;4998049;28;19929;-56
2022/10/19 14:01:40;;;;;;;;;;;13.40;99.90;;;;;;4996388;28;19933;-56
2022/10/19 14:04:16;;;;;;;;;;;13.40;99.90;;;;;;4996408;28;19929;-56
2022/10/19 14:06:45;;;;;;;;;;;13.40;99.90;;;;;;4997522;28;19929;-56
2022/10/19 14:09:17;;;;;;;;;;;13.40;99.90;;;;;;4997178;28;19930;-56
2022/10/19 14:11:45;;;;;;;;;;;13.50;99.90;;;;;;4997135;28;20400;-56
2022/10/19 14:14:15;;;;;;;;;;;13.40;99.90;;;;;;4996044;28;20518;-56
2022/10/19 14:16:46;;;;;;;;;;;13.50;99.90;;;;;;4996427;28;19936;-56
2022/10/19 14:19:13;;;;;;;;;;;13.50;99.90;;;;;;4997546;28;19930;-56
2022/10/19 14:21:40;;;;;;;;;;;13.50;99.90;;;;;;4996278;28;19933;-56
2022/10/19 14:24:20;;;;;;;;;;;13.50;99.90;;;;;;4997073;28;19931;-56
2022/10/19 14:26:47;;;;;;;;;;;13.50;99.90;;;;;;4997511;28;19930;-56
2022/10/19 14:29:14;;;;;;;;;;;13.50;99.90;;;;;;4995380;28;20450;-56
2022/10/19 14:31:40;;;;;;;;;;;13.40;99.90;;;;;;4994622;28;19934;-57
2022/10/19 14:34:08;;;;;;;;;;;13.40;99.90;;;;;;4993307;28;19939;-56
2022/10/19 14:36:37;;;;;;;;;;;13.50;99.90;;;;;;4998322;28;19929;-57
2022/10/19 14:39:04;;;;;;;;;;;13.40;99.90;;;;;;4996267;28;20384;-56